Flight Track Log - Related Links

Times and Time Zones

All times are in EDT time to prevent confusion due to time zone crossing. See the AMF1993 flight status page for this flight to view local times or setup timezone preferences in your user account.

Time Position Orientation Groundspeed Altitude Reporting Facility
EDT Latitude Longitude Course Direction KTS MPH feet Rate Location/Type
Mon 10:08:13 PM 42.4161 -122.8567 22° Northeast 134 154 3,400  Level Seattle Center
Mon 10:09:13 PM 42.4553 -122.8361 21° North 149 171 4,900 1,438 Climbing Seattle Center
Mon 10:10:14 PM 42.4892 -122.8664 327° Northwest 150 173 6,300 1,475 Climbing Seattle Center
Mon 10:11:15 PM 42.5306 -122.8936 334° Northwest 161 185 7,900 1,475 Climbing Seattle Center
Mon 10:12:16 PM 42.5761 -122.9072 348° North 167 192 9,300 1,328 Climbing Seattle Center
Mon 10:13:17 PM 42.6228 -122.9047 North 167 192 10,600 1,377 Climbing Seattle Center
Mon 10:14:18 PM 42.6728 -122.8944 North 178 205 12,100 1,377 Climbing Seattle Center
Mon 10:15:19 PM 42.7242 -122.8922 North 186 214 13,400 984 Climbing Seattle Center
Mon 10:16:20 PM 42.7831 -122.8881 North 202 232 14,100 347 Climbing Seattle Center
Mon 10:17:20 PM 42.8450 -122.8869 North 222 255 14,100  Level Seattle Center
Mon 10:18:21 PM 42.9078 -122.8781 North 227 261 14,100  Level Seattle Center
Mon 10:19:22 PM 42.9708 -122.8642 North 230 265 14,100  Level Seattle Center
Mon 10:20:23 PM 43.0342 -122.8625 North 228 262 14,100  Level Seattle Center
Mon 10:21:24 PM 43.1006 -122.8483 North 226 260 14,100  Level Seattle Center
Mon 10:22:25 PM 43.1633 -122.8386 North 227 261 14,100  Level Seattle Center
Mon 10:23:26 PM 43.2236 -122.8272 North 227 261 14,100  Level Seattle Center
Mon 10:24:26 PM 43.2894 -122.8228 North 228 262 14,100  Level Seattle Center
Mon 10:25:27 PM 43.3539 -122.8256 358° North 228 262 14,100  Level Seattle Center
Mon 10:26:28 PM 43.4175 -122.8275 359° North 227 261 14,100  Level Seattle Center
Mon 10:27:29 PM 43.4833 -122.8214 North 228 262 14,100  Level Seattle Center
Mon 10:28:30 PM 43.5483 -122.8169 North 229 264 14,100  Level Seattle Center
Mon 10:29:31 PM 43.6136 -122.8044 North 230 265 14,100  Level Seattle Center
Mon 10:30:32 PM 43.6778 -122.7950 North 230 265 14,100  Level Seattle Center
Mon 10:31:32 PM 43.7425 -122.7867 North 229 264 14,100  Level Seattle Center
Mon 10:32:33 PM 43.8028 -122.7800 North 229 264 14,100  Level Seattle Center
Mon 10:33:34 PM 43.8681 -122.7744 North 230 265 14,100  Level Seattle Center
Mon 10:34:35 PM 43.9325 -122.7689 North 230 265 14,100  Level Seattle Center
Mon 10:35:36 PM 43.9978 -122.7636 North 229 264 14,100  Level Seattle Center
Mon 10:36:36 PM 44.0628 -122.7575 North 230 265 14,100  Level Seattle Center
Mon 10:37:37 PM 44.1283 -122.7542 North 231 266 14,100  Level Seattle Center
Mon 10:38:38 PM 44.1939 -122.7461 North 231 266 14,100  Level Seattle Center
Mon 10:39:39 PM 44.2597 -122.7392 North 231 266 14,100 -49 Level Seattle Center
Mon 10:40:40 PM 44.3256 -122.7314 North 232 267 14,000 -50 Descending Seattle Center
Mon 10:41:40 PM 44.3833 -122.7258 North 233 268 14,000 -298 Level Seattle Center
Mon 10:42:41 PM 44.4492 -122.7269 359° North 235 270 13,400 -590 Descending Seattle Center
Mon 10:43:42 PM 44.5194 -122.7222 North 248 285 12,800 -590 Descending Seattle Center
Mon 10:44:43 PM 44.6017 -122.7100 North 249 287 12,200 -590 Descending Seattle Center
Mon 10:45:44 PM 44.6561 -122.7044 North 246 283 11,600 -645 Descending Seattle Center
Mon 10:46:44 PM 44.7244 -122.6967 North 246 283 10,900 -649 Descending Seattle Center
Mon 10:47:35 PM 44.7936 -122.6894 North 243 280 10,400 -590 Descending Seattle Center
Mon 10:47:45 PM 44.8064 -122.6867 North 246 283 10,300 -338 Descending Seattle Center
Mon 10:48:46 PM 44.8706 -122.6808 North 239 275 10,000 -344 Descending Seattle Center
Mon 10:49:47 PM 44.9331 -122.6800 North 232 267 9,600 -689 Descending Seattle Center
Mon 10:50:48 PM 44.9997 -122.6711 North 233 268 8,600 -1,033 Descending Seattle Center
Mon 10:51:49 PM 45.0708 -122.6628 North 235 270 7,500 -1,037 Descending Seattle Center
Mon 10:52:09 PM 45.0911 -122.6608 North 239 275 7,200 -971 Descending Seattle Center
Mon 10:52:57 PM 45.1461 -122.6542 North 235 270 6,400 -832 Descending Seattle Center
Mon 10:53:50 PM 45.2003 -122.6467 North 235 270 5,800 -716 Descending Seattle Center
Mon 10:54:04 PM 45.2142 -122.6481 356° North 232 267 5,600 -885 Descending Seattle Center
Mon 10:54:51 PM 45.2628 -122.6475 360° North 228 262 4,900 -885 Descending Seattle Center
Mon 10:55:05 PM 45.2769 -122.6469 North 224 258 4,700 -689 Descending Seattle Center
Mon 10:55:52 PM 45.3253 -122.6408 North 227 261 4,200 -700 Descending Seattle Center
Mon 10:56:05 PM 45.3383 -122.6406 North 222 255 4,000 -885 Descending Seattle Center
Mon 10:56:53 PM 45.3894 -122.6308 North 219 252 3,300 -771 Descending Seattle Center
Mon 10:57:54 PM 45.4475 -122.6264 North 215 247 2,600 -740 Descending Seattle Center
Mon 10:58:06 PM 45.4594 -122.6281 354° North 208 239 2,400 -1,000 Descending Seattle Center
Mon 10:58:54 PM 45.5039 -122.6308 357° North 207 238 1,600 -716 Descending Seattle Center
Mon 10:59:55 PM 45.5458 -122.6356 355° North 146 168 1,100 -639 Descending Seattle Center
Mon 11:00:56 PM 45.5794 -122.6222 16° North 111 128 300 -492 Descending Seattle Center
Mon 11:01:57 PM 45.5903 -122.6069 45° Northeast 101 116 100 -197 Descending Seattle Center
Mon 11:03:00 PM 45.5887 -122.5969 113° Southeast  Level Estimated
Mon 11:10:00 PM 45.5887 -122.5969 North  Level Estimated
Mon 11:11:00 PM 45.5887 -122.5969 120° Southeast  Level Estimated

Login

Don't have an account? Register now (free) for customized features, flight alerts, and more!